Radar strel več informacij blitzortung!


Radar padavin  rain snow radar


Obiščite še:

Template documentation
and downloads

And another site



Posebna pozornost v zvezi z vremenskimi dogajanji ni potrebna.    Posebna pozornost v zvezi z vremenskimi dogajanji ni potrebna.

METAR v bližini

   
EBBR - Brussels International Airport, Belgium
Oddaljenost od postaje: Z 14 km
Posodobljeno: 23-09-2017 14:20
nekaj oblakov  
nekaj oblakov  
   Veter: Vzhod 7.4 km/h
Veter: Vzhod 7.4 km/h
Temperatura: 16°C
Točka rosišča: 10°C
Zunanja vlažnost: 68%
Zračni tlak: 1024 hPa
Oblaki: nekaj oblakov
Vidljivost: More than 10 km
Podrobnosti o oblakih: nekaj oblakov 2000 ft
EBBR 231220Z 08004KT 030V110 9999 FEW020 16/10 Q1024 NOSIG
EBBE - Beauvechain (Bevekom), Belgium
Oddaljenost od postaje: JJV 17 km
Posodobljeno: 23-09-2017 14:25
nekaj oblakov  
nekaj oblakov  
   Veter: SV 11.1 km/h
Veter: SV 11.1 km/h
Temperatura: 15°C
Točka rosišča: 10°C
Zunanja vlažnost: 72%
Zračni tlak: 1024 hPa
Oblaki: nekaj oblakov
Vidljivost: More than 10 km
Podrobnosti o oblakih: nekaj oblakov 1800 ft
EBBE 231225Z AUTO 05006KT 9999 FEW018/// 15/10 Q1024 BLU
EBDT - Schaffen, Belgium
Oddaljenost od postaje: VSV 29 km
Posodobljeno: 23-09-2017 14:25
nekaj oblakov  
nekaj oblakov  
   Veter: SSV 5.6 km/h
Veter: SSV 5.6 km/h
Temperatura: 16°C
Točka rosišča: 11°C
Zunanja vlažnost: 72%
Zračni tlak: 1024 hPa
Oblaki: nekaj oblakov
Vidljivost: More than 10 km
Podrobnosti o oblakih: nekaj oblakov 1800 ft
EBDT 231225Z AUTO 03003KT 9999 FEW018/// 16/11 Q1024 BLU
EBAW - Antwerp/Deurne, Belgium
Oddaljenost od postaje: SSZ 38 km
Posodobljeno: 23-09-2017 14:20
nekaj oblakov  
nekaj oblakov  
   Veter: različen 3.7 km/h
Veter: različen 3.7 km/h
Temperatura: 17°C
Točka rosišča: 11°C
Zunanja vlažnost: 68%
Zračni tlak: 1024 hPa
Oblaki: nekaj oblakov
Vidljivost: More than 10 km
Podrobnosti o oblakih: nekaj oblakov 2500 ft
EBAW 231220Z VRB02KT 9999 FEW025 17/11 Q1024 NOSIG
EBCI - Charleroi/Gosselies, Belgium
Oddaljenost od postaje: JJZ 51 km
Posodobljeno: 23-09-2017 14:20
nekaj oblakov  
nekaj oblakov  
   Veter: VSV 11.1 km/h
Veter: VSV 11.1 km/h
Temperatura: 16°C
Točka rosišča: 8°C
Zunanja vlažnost: 59%
Zračni tlak: 1024 hPa
Oblaki: nekaj oblakov
Vidljivost: More than 10 km
Podrobnosti o oblakih: nekaj oblakov 2200 ft
EBCI 231220Z 07006KT 040V110 9999 FEW022 16/08 Q1024 NOSIG
EBLG - Bierset/Liege, Belgium
Oddaljenost od postaje: VJV 60 km
Posodobljeno: 23-09-2017 14:20
nekaj oblakov  
nekaj oblakov  
   Veter: SSV 9.3 km/h
Veter: SSV 9.3 km/h
Temperatura: 16°C
Točka rosišča: 9°C
Zunanja vlažnost: 63%
Zračni tlak: 1024 hPa
Oblaki: nekaj oblakov
Vidljivost: More than 10 km
Podrobnosti o oblakih: nekaj oblakov 1800 ft
EBLG 231220Z 02005KT 340V070 9999 FEW018 16/09 Q1024 NOSIG

Script developed by  Saratoga-weather.org Adapted for the template by  Weerstation Leuven